sensor_id;sensor_type;location;lat;lon;timestamp;P1;durP1;ratioP1;P2;durP2;ratioP2
3004;SDS011;1512;51.486;6.610;2023-06-10T00:01:48;9.30;;;7.83;;
3004;SDS011;1512;51.486;6.610;2023-06-10T00:05:57;8.67;;;7.80;;
3004;SDS011;1512;51.486;6.610;2023-06-10T00:10:06;9.60;;;8.00;;
3004;SDS011;1512;51.486;6.610;2023-06-10T00:14:15;9.97;;;7.70;;
3004;SDS011;1512;51.486;6.610;2023-06-10T00:18:24;9.63;;;7.73;;
3004;SDS011;1512;51.486;6.610;2023-06-10T00:22:34;8.77;;;7.03;;
3004;SDS011;1512;51.486;6.610;2023-06-10T00:26:42;8.00;;;7.20;;
3004;SDS011;1512;51.486;6.610;2023-06-10T00:30:51;8.60;;;7.77;;
3004;SDS011;1512;51.486;6.610;2023-06-10T00:35:00;8.20;;;7.33;;
3004;SDS011;1512;51.486;6.610;2023-06-10T00:39:10;9.80;;;8.30;;
3004;SDS011;1512;51.486;6.610;2023-06-10T00:43:18;10.63;;;7.87;;
3004;SDS011;1512;51.486;6.610;2023-06-10T00:47:27;12.67;;;9.10;;
3004;SDS011;1512;51.486;6.610;2023-06-10T00:51:37;9.13;;;8.10;;
3004;SDS011;1512;51.486;6.610;2023-06-10T00:55:46;8.27;;;7.33;;
3004;SDS011;1512;51.486;6.610;2023-06-10T00:59:56;9.30;;;8.30;;
3004;SDS011;1512;51.486;6.610;2023-06-10T01:04:05;9.10;;;8.20;;
3004;SDS011;1512;51.486;6.610;2023-06-10T01:12:52;9.90;;;7.40;;
3004;SDS011;1512;51.486;6.610;2023-06-10T01:16:59;7.67;;;7.00;;
3004;SDS011;1512;51.486;6.610;2023-06-10T01:21:12;8.80;;;7.90;;
3004;SDS011;1512;51.486;6.610;2023-06-10T01:25:24;9.20;;;8.40;;
3004;SDS011;1512;51.486;6.610;2023-06-10T01:29:43;8.20;;;7.43;;
3004;SDS011;1512;51.486;6.610;2023-06-10T01:33:53;9.50;;;8.30;;
3004;SDS011;1512;51.486;6.610;2023-06-10T01:38:02;9.27;;;8.30;;
3004;SDS011;1512;51.486;6.610;2023-06-10T01:42:11;10.07;;;7.60;;
3004;SDS011;1512;51.486;6.610;2023-06-10T01:46:20;11.17;;;8.70;;
3004;SDS011;1512;51.486;6.610;2023-06-10T01:50:30;9.30;;;8.50;;
3004;SDS011;1512;51.486;6.610;2023-06-10T01:54:38;9.00;;;8.20;;
3004;SDS011;1512;51.486;6.610;2023-06-10T01:58:47;9.57;;;8.40;;
3004;SDS011;1512;51.486;6.610;2023-06-10T02:02:56;9.13;;;8.30;;
3004;SDS011;1512;51.486;6.610;2023-06-10T02:07:05;10.30;;;8.17;;
3004;SDS011;1512;51.486;6.610;2023-06-10T02:11:14;9.67;;;8.73;;
3004;SDS011;1512;51.486;6.610;2023-06-10T02:15:22;9.87;;;8.77;;
3004;SDS011;1512;51.486;6.610;2023-06-10T02:19:31;9.20;;;8.17;;
3004;SDS011;1512;51.486;6.610;2023-06-10T02:23:41;12.30;;;9.57;;
3004;SDS011;1512;51.486;6.610;2023-06-10T02:27:50;9.47;;;8.30;;
3004;SDS011;1512;51.486;6.610;2023-06-10T02:31:59;13.10;;;8.77;;
3004;SDS011;1512;51.486;6.610;2023-06-10T02:36:08;11.60;;;10.40;;
3004;SDS011;1512;51.486;6.610;2023-06-10T02:40:18;10.93;;;9.80;;
3004;SDS011;1512;51.486;6.610;2023-06-10T02:44:27;11.47;;;9.90;;
3004;SDS011;1512;51.486;6.610;2023-06-10T02:48:42;10.83;;;9.73;;
3004;SDS011;1512;51.486;6.610;2023-06-10T02:52:51;11.07;;;9.87;;
3004;SDS011;1512;51.486;6.610;2023-06-10T02:57:00;10.97;;;9.93;;
3004;SDS011;1512;51.486;6.610;2023-06-10T03:01:08;12.73;;;9.47;;
3004;SDS011;1512;51.486;6.610;2023-06-10T03:05:17;11.33;;;9.50;;
3004;SDS011;1512;51.486;6.610;2023-06-10T03:09:26;12.07;;;11.07;;
3004;SDS011;1512;51.486;6.610;2023-06-10T03:13:35;12.40;;;11.17;;
3004;SDS011;1512;51.486;6.610;2023-06-10T03:17:44;13.00;;;10.73;;
3004;SDS011;1512;51.486;6.610;2023-06-10T03:22:09;13.57;;;10.90;;
3004;SDS011;1512;51.486;6.610;2023-06-10T03:26:18;13.63;;;11.77;;
3004;SDS011;1512;51.486;6.610;2023-06-10T03:30:29;11.90;;;10.60;;
3004;SDS011;1512;51.486;6.610;2023-06-10T03:34:37;11.57;;;10.30;;
3004;SDS011;1512;51.486;6.610;2023-06-10T03:38:46;15.20;;;11.67;;
3004;SDS011;1512;51.486;6.610;2023-06-10T03:42:57;11.23;;;10.23;;
3004;SDS011;1512;51.486;6.610;2023-06-10T03:47:06;11.10;;;10.00;;
3004;SDS011;1512;51.486;6.610;2023-06-10T03:51:14;12.77;;;11.07;;
3004;SDS011;1512;51.486;6.610;2023-06-10T03:55:23;12.23;;;10.87;;
3004;SDS011;1512;51.486;6.610;2023-06-10T03:59:32;12.20;;;10.93;;
3004;SDS011;1512;51.486;6.610;2023-06-10T04:03:40;13.13;;;11.60;;
3004;SDS011;1512;51.486;6.610;2023-06-10T04:07:50;11.07;;;9.60;;
3004;SDS011;1512;51.486;6.610;2023-06-10T04:11:59;11.80;;;10.27;;
3004;SDS011;1512;51.486;6.610;2023-06-10T04:16:08;13.93;;;11.15;;
3004;SDS011;1512;51.486;6.610;2023-06-10T04:20:17;12.10;;;10.40;;
3004;SDS011;1512;51.486;6.610;2023-06-10T04:24:26;12.70;;;11.10;;
3004;SDS011;1512;51.486;6.610;2023-06-10T04:28:35;11.77;;;10.30;;
3004;SDS011;1512;51.486;6.610;2023-06-10T04:32:43;11.80;;;10.20;;
3004;SDS011;1512;51.486;6.610;2023-06-10T04:36:52;12.90;;;11.13;;
3004;SDS011;1512;51.486;6.610;2023-06-10T04:41:01;10.73;;;9.70;;
3004;SDS011;1512;51.486;6.610;2023-06-10T04:45:10;12.33;;;11.13;;
3004;SDS011;1512;51.486;6.610;2023-06-10T04:49:19;16.00;;;10.30;;
3004;SDS011;1512;51.486;6.610;2023-06-10T04:53:27;11.57;;;10.33;;
3004;SDS011;1512;51.486;6.610;2023-06-10T04:57:37;10.27;;;9.13;;
3004;SDS011;1512;51.486;6.610;2023-06-10T05:01:46;10.37;;;9.00;;
3004;SDS011;1512;51.486;6.610;2023-06-10T05:05:54;11.27;;;10.17;;
3004;SDS011;1512;51.486;6.610;2023-06-10T05:10:03;11.20;;;9.90;;
3004;SDS011;1512;51.486;6.610;2023-06-10T05:14:13;12.07;;;9.90;;
3004;SDS011;1512;51.486;6.610;2023-06-10T05:18:23;15.47;;;9.43;;
3004;SDS011;1512;51.486;6.610;2023-06-10T05:22:32;10.60;;;8.20;;
3004;SDS011;1512;51.486;6.610;2023-06-10T05:26:41;9.83;;;8.10;;
3004;SDS011;1512;51.486;6.610;2023-06-10T05:30:50;9.93;;;8.70;;
3004;SDS011;1512;51.486;6.610;2023-06-10T05:34:59;10.73;;;8.40;;
3004;SDS011;1512;51.486;6.610;2023-06-10T05:39:09;9.90;;;8.33;;
3004;SDS011;1512;51.486;6.610;2023-06-10T05:43:18;10.00;;;8.30;;
3004;SDS011;1512;51.486;6.610;2023-06-10T05:47:26;10.80;;;8.60;;
3004;SDS011;1512;51.486;6.610;2023-06-10T05:51:35;9.83;;;7.77;;
3004;SDS011;1512;51.486;6.610;2023-06-10T05:55:44;10.77;;;7.50;;
3004;SDS011;1512;51.486;6.610;2023-06-10T05:59:54;8.17;;;7.00;;
3004;SDS011;1512;51.486;6.610;2023-06-10T06:04:02;10.03;;;7.83;;
3004;SDS011;1512;51.486;6.610;2023-06-10T06:08:11;7.27;;;6.50;;
3004;SDS011;1512;51.486;6.610;2023-06-10T06:12:24;7.80;;;7.00;;
3004;SDS011;1512;51.486;6.610;2023-06-10T06:16:33;9.93;;;7.07;;
3004;SDS011;1512;51.486;6.610;2023-06-10T06:20:42;11.07;;;7.20;;
3004;SDS011;1512;51.486;6.610;2023-06-10T06:24:51;9.47;;;6.97;;
3004;SDS011;1512;51.486;6.610;2023-06-10T06:28:59;8.30;;;6.13;;
3004;SDS011;1512;51.486;6.610;2023-06-10T06:33:08;10.00;;;7.13;;
3004;SDS011;1512;51.486;6.610;2023-06-10T06:37:17;10.00;;;6.30;;
3004;SDS011;1512;51.486;6.610;2023-06-10T06:41:28;9.40;;;6.80;;
3004;SDS011;1512;51.486;6.610;2023-06-10T06:45:37;7.63;;;6.60;;
3004;SDS011;1512;51.486;6.610;2023-06-10T06:49:46;7.07;;;6.10;;
3004;SDS011;1512;51.486;6.610;2023-06-10T06:53:55;8.13;;;6.67;;
3004;SDS011;1512;51.486;6.610;2023-06-10T06:58:05;10.10;;;7.47;;
3004;SDS011;1512;51.486;6.610;2023-06-10T07:02:14;11.73;;;6.40;;
3004;SDS011;1512;51.486;6.610;2023-06-10T07:06:22;7.73;;;6.20;;
3004;SDS011;1512;51.486;6.610;2023-06-10T07:10:32;7.73;;;6.23;;
3004;SDS011;1512;51.486;6.610;2023-06-10T07:14:41;7.93;;;7.00;;
3004;SDS011;1512;51.486;6.610;2023-06-10T07:18:52;9.03;;;5.77;;
3004;SDS011;1512;51.486;6.610;2023-06-10T07:23:19;7.77;;;6.17;;
3004;SDS011;1512;51.486;6.610;2023-06-10T07:27:28;9.00;;;5.20;;
3004;SDS011;1512;51.486;6.610;2023-06-10T07:31:37;7.40;;;6.70;;
3004;SDS011;1512;51.486;6.610;2023-06-10T07:35:45;9.40;;;8.50;;
3004;SDS011;1512;51.486;6.610;2023-06-10T07:39:54;9.37;;;5.90;;
3004;SDS011;1512;51.486;6.610;2023-06-10T07:44:04;11.03;;;6.67;;
3004;SDS011;1512;51.486;6.610;2023-06-10T07:48:13;7.20;;;6.07;;
3004;SDS011;1512;51.486;6.610;2023-06-10T07:52:21;8.10;;;6.50;;
3004;SDS011;1512;51.486;6.610;2023-06-10T07:56:30;9.97;;;7.13;;
3004;SDS011;1512;51.486;6.610;2023-06-10T08:00:39;9.87;;;6.27;;
3004;SDS011;1512;51.486;6.610;2023-06-10T08:04:47;8.27;;;5.70;;
3004;SDS011;1512;51.486;6.610;2023-06-10T08:08:56;8.63;;;5.73;;
3004;SDS011;1512;51.486;6.610;2023-06-10T08:13:05;6.87;;;5.70;;
3004;SDS011;1512;51.486;6.610;2023-06-10T08:17:13;13.70;;;7.40;;
3004;SDS011;1512;51.486;6.610;2023-06-10T08:21:22;7.60;;;6.33;;
3004;SDS011;1512;51.486;6.610;2023-06-10T08:25:31;7.70;;;6.37;;
3004;SDS011;1512;51.486;6.610;2023-06-10T08:29:39;6.73;;;5.27;;
3004;SDS011;1512;51.486;6.610;2023-06-10T08:33:48;8.60;;;6.30;;
3004;SDS011;1512;51.486;6.610;2023-06-10T08:37:57;5.80;;;5.17;;
3004;SDS011;1512;51.486;6.610;2023-06-10T08:42:11;8.63;;;6.33;;
3004;SDS011;1512;51.486;6.610;2023-06-10T08:46:24;6.87;;;6.10;;
3004;SDS011;1512;51.486;6.610;2023-06-10T08:50:38;6.77;;;6.07;;
3004;SDS011;1512;51.486;6.610;2023-06-10T08:59:02;6.70;;;6.07;;
3004;SDS011;1512;51.486;6.610;2023-06-10T09:03:11;6.87;;;5.83;;
3004;SDS011;1512;51.486;6.610;2023-06-10T09:07:20;9.13;;;6.20;;
3004;SDS011;1512;51.486;6.610;2023-06-10T09:11:29;6.47;;;5.87;;
3004;SDS011;1512;51.486;6.610;2023-06-10T09:15:39;9.27;;;6.73;;
3004;SDS011;1512;51.486;6.610;2023-06-10T09:19:48;8.23;;;6.50;;
3004;SDS011;1512;51.486;6.610;2023-06-10T09:23:58;7.67;;;6.10;;
3004;SDS011;1512;51.486;6.610;2023-06-10T09:28:14;6.90;;;6.27;;
3004;SDS011;1512;51.486;6.610;2023-06-10T09:32:23;7.77;;;6.33;;
3004;SDS011;1512;51.486;6.610;2023-06-10T09:36:33;12.77;;;8.53;;
3004;SDS011;1512;51.486;6.610;2023-06-10T09:40:49;7.90;;;6.13;;
3004;SDS011;1512;51.486;6.610;2023-06-10T09:44:58;14.03;;;6.67;;
3004;SDS011;1512;51.486;6.610;2023-06-10T09:49:08;8.03;;;5.90;;
3004;SDS011;1512;51.486;6.610;2023-06-10T09:53:16;7.80;;;7.03;;
3004;SDS011;1512;51.486;6.610;2023-06-10T09:57:26;6.90;;;6.20;;
3004;SDS011;1512;51.486;6.610;2023-06-10T10:01:36;9.10;;;7.00;;
3004;SDS011;1512;51.486;6.610;2023-06-10T10:05:45;7.97;;;6.97;;
3004;SDS011;1512;51.486;6.610;2023-06-10T10:09:54;9.00;;;7.80;;
3004;SDS011;1512;51.486;6.610;2023-06-10T10:14:03;9.10;;;6.93;;
3004;SDS011;1512;51.486;6.610;2023-06-10T10:18:14;9.53;;;7.23;;
3004;SDS011;1512;51.486;6.610;2023-06-10T10:22:26;13.10;;;6.93;;
3004;SDS011;1512;51.486;6.610;2023-06-10T10:26:41;6.63;;;6.00;;
3004;SDS011;1512;51.486;6.610;2023-06-10T10:30:52;7.53;;;6.60;;
3004;SDS011;1512;51.486;6.610;2023-06-10T10:35:04;8.83;;;7.93;;
3004;SDS011;1512;51.486;6.610;2023-06-10T10:39:17;7.53;;;6.80;;
3004;SDS011;1512;51.486;6.610;2023-06-10T10:43:27;7.63;;;6.93;;
3004;SDS011;1512;51.486;6.610;2023-06-10T10:47:37;8.17;;;7.47;;
3004;SDS011;1512;51.486;6.610;2023-06-10T10:51:59;7.60;;;6.80;;
3004;SDS011;1512;51.486;6.610;2023-06-10T10:56:15;7.30;;;6.60;;
3004;SDS011;1512;51.486;6.610;2023-06-10T11:00:28;7.27;;;6.57;;
3004;SDS011;1512;51.486;6.610;2023-06-10T11:04:44;8.10;;;7.40;;
3004;SDS011;1512;51.486;6.610;2023-06-10T11:08:52;7.90;;;7.20;;
3004;SDS011;1512;51.486;6.610;2023-06-10T11:13:05;8.43;;;7.60;;
3004;SDS011;1512;51.486;6.610;2023-06-10T11:17:23;9.73;;;6.80;;
3004;SDS011;1512;51.486;6.610;2023-06-10T11:21:31;8.03;;;7.23;;
3004;SDS011;1512;51.486;6.610;2023-06-10T11:25:42;7.63;;;6.83;;
3004;SDS011;1512;51.486;6.610;2023-06-10T11:34:08;8.20;;;7.50;;
3004;SDS011;1512;51.486;6.610;2023-06-10T11:38:17;6.97;;;6.30;;
3004;SDS011;1512;51.486;6.610;2023-06-10T11:42:26;8.23;;;7.43;;
3004;SDS011;1512;51.486;6.610;2023-06-10T11:46:35;9.67;;;6.87;;
3004;SDS011;1512;51.486;6.610;2023-06-10T11:50:44;7.63;;;6.73;;
3004;SDS011;1512;51.486;6.610;2023-06-10T11:54:54;7.43;;;6.73;;
3004;SDS011;1512;51.486;6.610;2023-06-10T11:59:03;7.03;;;6.33;;
3004;SDS011;1512;51.486;6.610;2023-06-10T12:03:17;8.17;;;7.20;;
3004;SDS011;1512;51.486;6.610;2023-06-10T12:07:26;7.50;;;6.80;;
3004;SDS011;1512;51.486;6.610;2023-06-10T12:11:34;8.13;;;7.43;;
3004;SDS011;1512;51.486;6.610;2023-06-10T12:15:43;7.83;;;7.23;;
3004;SDS011;1512;51.486;6.610;2023-06-10T12:19:52;7.10;;;6.50;;
3004;SDS011;1512;51.486;6.610;2023-06-10T12:28:15;9.00;;;7.20;;
3004;SDS011;1512;51.486;6.610;2023-06-10T12:32:35;7.37;;;6.67;;
3004;SDS011;1512;51.486;6.610;2023-06-10T12:36:49;9.53;;;6.83;;
3004;SDS011;1512;51.486;6.610;2023-06-10T12:41:01;7.77;;;6.97;;
3004;SDS011;1512;51.486;6.610;2023-06-10T12:45:10;7.70;;;7.00;;
3004;SDS011;1512;51.486;6.610;2023-06-10T12:49:20;7.13;;;6.43;;
3004;SDS011;1512;51.486;6.610;2023-06-10T12:53:29;9.03;;;6.97;;
3004;SDS011;1512;51.486;6.610;2023-06-10T12:57:46;8.73;;;7.93;;
3004;SDS011;1512;51.486;6.610;2023-06-10T13:01:53;7.10;;;6.40;;
3004;SDS011;1512;51.486;6.610;2023-06-10T13:06:02;11.10;;;6.43;;
3004;SDS011;1512;51.486;6.610;2023-06-10T13:10:13;8.27;;;7.50;;
3004;SDS011;1512;51.486;6.610;2023-06-10T13:14:23;8.10;;;7.30;;
3004;SDS011;1512;51.486;6.610;2023-06-10T13:18:31;16.20;;;8.23;;
3004;SDS011;1512;51.486;6.610;2023-06-10T13:22:42;8.47;;;7.50;;
3004;SDS011;1512;51.486;6.610;2023-06-10T13:26:51;8.03;;;7.23;;
3004;SDS011;1512;51.486;6.610;2023-06-10T13:31:00;7.57;;;6.87;;
3004;SDS011;1512;51.486;6.610;2023-06-10T13:35:09;8.03;;;7.17;;
3004;SDS011;1512;51.486;6.610;2023-06-10T13:39:18;8.60;;;7.57;;
3004;SDS011;1512;51.486;6.610;2023-06-10T13:43:27;9.27;;;7.03;;
3004;SDS011;1512;51.486;6.610;2023-06-10T13:47:36;8.27;;;7.17;;
3004;SDS011;1512;51.486;6.610;2023-06-10T13:51:45;9.03;;;8.10;;
3004;SDS011;1512;51.486;6.610;2023-06-10T13:55:54;8.37;;;7.57;;
3004;SDS011;1512;51.486;6.610;2023-06-10T14:00:03;9.20;;;7.43;;
3004;SDS011;1512;51.486;6.610;2023-06-10T14:04:13;9.13;;;8.30;;
3004;SDS011;1512;51.486;6.610;2023-06-10T14:08:21;7.60;;;6.97;;
3004;SDS011;1512;51.486;6.610;2023-06-10T14:12:30;8.13;;;7.43;;
3004;SDS011;1512;51.486;6.610;2023-06-10T14:16:39;8.53;;;7.23;;
3004;SDS011;1512;51.486;6.610;2023-06-10T14:20:49;8.83;;;7.93;;
3004;SDS011;1512;51.486;6.610;2023-06-10T14:24:58;8.90;;;8.00;;
3004;SDS011;1512;51.486;6.610;2023-06-10T14:29:08;7.50;;;6.80;;
3004;SDS011;1512;51.486;6.610;2023-06-10T14:33:17;7.13;;;6.53;;
3004;SDS011;1512;51.486;6.610;2023-06-10T14:37:26;8.30;;;7.40;;
3004;SDS011;1512;51.486;6.610;2023-06-10T14:41:35;8.73;;;7.93;;
3004;SDS011;1512;51.486;6.610;2023-06-10T14:45:47;7.30;;;6.60;;
3004;SDS011;1512;51.486;6.610;2023-06-10T14:49:57;7.50;;;6.90;;
3004;SDS011;1512;51.486;6.610;2023-06-10T14:54:06;13.20;;;8.00;;
3004;SDS011;1512;51.486;6.610;2023-06-10T14:58:14;8.40;;;6.87;;
3004;SDS011;1512;51.486;6.610;2023-06-10T15:02:23;7.60;;;6.90;;
3004;SDS011;1512;51.486;6.610;2023-06-10T15:06:33;7.30;;;6.60;;
3004;SDS011;1512;51.486;6.610;2023-06-10T15:10:42;8.30;;;7.50;;
3004;SDS011;1512;51.486;6.610;2023-06-10T15:14:50;9.13;;;8.23;;
3004;SDS011;1512;51.486;6.610;2023-06-10T15:18:59;8.93;;;7.23;;
3004;SDS011;1512;51.486;6.610;2023-06-10T15:23:08;7.30;;;6.70;;
3004;SDS011;1512;51.486;6.610;2023-06-10T15:27:16;8.27;;;7.03;;
3004;SDS011;1512;51.486;6.610;2023-06-10T15:31:25;7.13;;;6.43;;
3004;SDS011;1512;51.486;6.610;2023-06-10T15:35:34;8.30;;;6.77;;
3004;SDS011;1512;51.486;6.610;2023-06-10T15:39:43;9.10;;;7.07;;
3004;SDS011;1512;51.486;6.610;2023-06-10T15:43:51;8.10;;;7.30;;
3004;SDS011;1512;51.486;6.610;2023-06-10T15:48:00;8.30;;;7.10;;
3004;SDS011;1512;51.486;6.610;2023-06-10T15:52:09;9.20;;;7.60;;
3004;SDS011;1512;51.486;6.610;2023-06-10T15:56:18;7.23;;;6.53;;
3004;SDS011;1512;51.486;6.610;2023-06-10T16:00:27;7.60;;;6.93;;
3004;SDS011;1512;51.486;6.610;2023-06-10T16:04:36;7.73;;;6.93;;
3004;SDS011;1512;51.486;6.610;2023-06-10T16:08:45;7.47;;;6.73;;
3004;SDS011;1512;51.486;6.610;2023-06-10T16:12:54;7.20;;;6.60;;
3004;SDS011;1512;51.486;6.610;2023-06-10T16:17:03;7.70;;;7.00;;
3004;SDS011;1512;51.486;6.610;2023-06-10T16:21:12;7.80;;;7.10;;
3004;SDS011;1512;51.486;6.610;2023-06-10T16:25:24;7.33;;;6.63;;
3004;SDS011;1512;51.486;6.610;2023-06-10T16:29:35;7.60;;;6.90;;
3004;SDS011;1512;51.486;6.610;2023-06-10T16:33:44;8.33;;;7.40;;
3004;SDS011;1512;51.486;6.610;2023-06-10T16:37:53;7.50;;;6.70;;
3004;SDS011;1512;51.486;6.610;2023-06-10T16:42:02;7.60;;;6.80;;
3004;SDS011;1512;51.486;6.610;2023-06-10T16:46:11;8.10;;;6.87;;
3004;SDS011;1512;51.486;6.610;2023-06-10T16:50:21;9.37;;;7.10;;
3004;SDS011;1512;51.486;6.610;2023-06-10T16:54:30;7.40;;;6.73;;
3004;SDS011;1512;51.486;6.610;2023-06-10T16:58:39;7.47;;;6.57;;
3004;SDS011;1512;51.486;6.610;2023-06-10T17:02:47;7.80;;;7.00;;
3004;SDS011;1512;51.486;6.610;2023-06-10T17:06:56;7.40;;;6.73;;
3004;SDS011;1512;51.486;6.610;2023-06-10T17:11:05;7.80;;;6.53;;
3004;SDS011;1512;51.486;6.610;2023-06-10T17:15:14;7.50;;;6.70;;
3004;SDS011;1512;51.486;6.610;2023-06-10T17:19:22;7.83;;;6.63;;
3004;SDS011;1512;51.486;6.610;2023-06-10T17:23:31;6.80;;;6.10;;
3004;SDS011;1512;51.486;6.610;2023-06-10T17:27:40;7.03;;;6.43;;
3004;SDS011;1512;51.486;6.610;2023-06-10T17:31:49;7.60;;;6.73;;
3004;SDS011;1512;51.486;6.610;2023-06-10T17:35:58;7.57;;;6.93;;
3004;SDS011;1512;51.486;6.610;2023-06-10T17:40:07;8.60;;;7.80;;
3004;SDS011;1512;51.486;6.610;2023-06-10T17:44:16;7.40;;;6.70;;
3004;SDS011;1512;51.486;6.610;2023-06-10T17:48:28;7.97;;;6.27;;
3004;SDS011;1512;51.486;6.610;2023-06-10T17:52:37;6.63;;;6.00;;
3004;SDS011;1512;51.486;6.610;2023-06-10T17:56:45;8.17;;;7.37;;
3004;SDS011;1512;51.486;6.610;2023-06-10T18:00:54;7.57;;;6.87;;
3004;SDS011;1512;51.486;6.610;2023-06-10T18:05:04;7.50;;;6.70;;
3004;SDS011;1512;51.486;6.610;2023-06-10T18:09:14;9.80;;;6.87;;
3004;SDS011;1512;51.486;6.610;2023-06-10T18:13:30;7.53;;;6.43;;
3004;SDS011;1512;51.486;6.610;2023-06-10T18:17:39;7.60;;;6.90;;
3004;SDS011;1512;51.486;6.610;2023-06-10T18:21:48;7.47;;;6.70;;
3004;SDS011;1512;51.486;6.610;2023-06-10T18:25:57;7.33;;;6.57;;
3004;SDS011;1512;51.486;6.610;2023-06-10T18:30:07;6.57;;;5.87;;
3004;SDS011;1512;51.486;6.610;2023-06-10T18:34:17;7.67;;;6.87;;
3004;SDS011;1512;51.486;6.610;2023-06-10T18:38:25;8.87;;;6.97;;
3004;SDS011;1512;51.486;6.610;2023-06-10T18:42:34;6.77;;;6.07;;
3004;SDS011;1512;51.486;6.610;2023-06-10T18:46:43;7.17;;;6.47;;
3004;SDS011;1512;51.486;6.610;2023-06-10T18:50:54;11.03;;;7.33;;
3004;SDS011;1512;51.486;6.610;2023-06-10T18:55:03;7.20;;;6.50;;
3004;SDS011;1512;51.486;6.610;2023-06-10T18:59:12;7.20;;;6.57;;
3004;SDS011;1512;51.486;6.610;2023-06-10T19:03:20;7.77;;;6.97;;
3004;SDS011;1512;51.486;6.610;2023-06-10T19:07:29;8.30;;;7.47;;
3004;SDS011;1512;51.486;6.610;2023-06-10T19:11:38;9.67;;;7.23;;
3004;SDS011;1512;51.486;6.610;2023-06-10T19:15:47;7.30;;;6.60;;
3004;SDS011;1512;51.486;6.610;2023-06-10T19:19:56;7.17;;;6.17;;
3004;SDS011;1512;51.486;6.610;2023-06-10T19:24:05;7.70;;;6.53;;
3004;SDS011;1512;51.486;6.610;2023-06-10T19:28:14;7.63;;;6.93;;
3004;SDS011;1512;51.486;6.610;2023-06-10T19:32:26;7.10;;;6.40;;
3004;SDS011;1512;51.486;6.610;2023-06-10T19:36:35;7.12;;;6.42;;
3004;SDS011;1512;51.486;6.610;2023-06-10T19:40:44;7.80;;;7.00;;
3004;SDS011;1512;51.486;6.610;2023-06-10T19:44:53;10.00;;;7.70;;
3004;SDS011;1512;51.486;6.610;2023-06-10T19:49:02;7.07;;;6.37;;
3004;SDS011;1512;51.486;6.610;2023-06-10T19:53:10;8.00;;;7.20;;
3004;SDS011;1512;51.486;6.610;2023-06-10T19:57:23;9.00;;;8.10;;
3004;SDS011;1512;51.486;6.610;2023-06-10T20:01:40;8.73;;;7.57;;
3004;SDS011;1512;51.486;6.610;2023-06-10T20:05:49;8.10;;;7.40;;
3004;SDS011;1512;51.486;6.610;2023-06-10T20:09:58;9.73;;;7.40;;
3004;SDS011;1512;51.486;6.610;2023-06-10T20:14:07;7.50;;;6.83;;
3004;SDS011;1512;51.486;6.610;2023-06-10T20:18:19;7.62;;;6.85;;
3004;SDS011;1512;51.486;6.610;2023-06-10T20:22:28;7.67;;;6.97;;
3004;SDS011;1512;51.486;6.610;2023-06-10T20:26:37;8.47;;;7.13;;
3004;SDS011;1512;51.486;6.610;2023-06-10T20:30:46;8.27;;;7.47;;
3004;SDS011;1512;51.486;6.610;2023-06-10T20:34:55;10.73;;;9.73;;
3004;SDS011;1512;51.486;6.610;2023-06-10T20:39:03;8.70;;;7.80;;
3004;SDS011;1512;51.486;6.610;2023-06-10T20:43:12;8.10;;;7.30;;
3004;SDS011;1512;51.486;6.610;2023-06-10T20:47:22;9.33;;;7.97;;
3004;SDS011;1512;51.486;6.610;2023-06-10T20:51:31;8.33;;;7.40;;
3004;SDS011;1512;51.486;6.610;2023-06-10T20:55:40;9.20;;;7.93;;
3004;SDS011;1512;51.486;6.610;2023-06-10T20:59:49;8.30;;;7.60;;
3004;SDS011;1512;51.486;6.610;2023-06-10T21:04:08;10.77;;;7.37;;
3004;SDS011;1512;51.486;6.610;2023-06-10T21:08:17;8.47;;;7.63;;
3004;SDS011;1512;51.486;6.610;2023-06-10T21:12:26;8.60;;;7.33;;
3004;SDS011;1512;51.486;6.610;2023-06-10T21:16:35;7.93;;;7.13;;
3004;SDS011;1512;51.486;6.610;2023-06-10T21:20:45;8.27;;;7.47;;
3004;SDS011;1512;51.486;6.610;2023-06-10T21:24:54;8.07;;;7.23;;
3004;SDS011;1512;51.486;6.610;2023-06-10T21:29:03;7.53;;;6.83;;
3004;SDS011;1512;51.486;6.610;2023-06-10T21:33:12;8.07;;;7.37;;
3004;SDS011;1512;51.486;6.610;2023-06-10T21:37:20;8.43;;;7.47;;
3004;SDS011;1512;51.486;6.610;2023-06-10T21:41:29;8.37;;;7.57;;
3004;SDS011;1512;51.486;6.610;2023-06-10T21:45:38;8.80;;;7.30;;
3004;SDS011;1512;51.486;6.610;2023-06-10T21:49:46;8.40;;;7.60;;
3004;SDS011;1512;51.486;6.610;2023-06-10T21:53:55;8.93;;;7.03;;
3004;SDS011;1512;51.486;6.610;2023-06-10T21:58:04;9.50;;;7.87;;
3004;SDS011;1512;51.486;6.610;2023-06-10T22:02:13;9.27;;;8.27;;
3004;SDS011;1512;51.486;6.610;2023-06-10T22:06:22;8.27;;;7.47;;
3004;SDS011;1512;51.486;6.610;2023-06-10T22:10:31;10.73;;;7.63;;
3004;SDS011;1512;51.486;6.610;2023-06-10T22:14:40;8.43;;;7.10;;
3004;SDS011;1512;51.486;6.610;2023-06-10T22:18:49;11.40;;;7.70;;
3004;SDS011;1512;51.486;6.610;2023-06-10T22:22:57;9.00;;;8.10;;
3004;SDS011;1512;51.486;6.610;2023-06-10T22:27:06;9.57;;;7.20;;
3004;SDS011;1512;51.486;6.610;2023-06-10T22:31:15;9.37;;;7.90;;
3004;SDS011;1512;51.486;6.610;2023-06-10T22:35:24;8.33;;;7.53;;
3004;SDS011;1512;51.486;6.610;2023-06-10T22:39:32;8.20;;;7.50;;
3004;SDS011;1512;51.486;6.610;2023-06-10T22:43:41;8.93;;;8.07;;
3004;SDS011;1512;51.486;6.610;2023-06-10T22:47:50;8.97;;;8.07;;
3004;SDS011;1512;51.486;6.610;2023-06-10T22:51:58;9.10;;;8.13;;
3004;SDS011;1512;51.486;6.610;2023-06-10T22:56:07;8.73;;;7.83;;
3004;SDS011;1512;51.486;6.610;2023-06-10T23:00:16;12.43;;;8.87;;
3004;SDS011;1512;51.486;6.610;2023-06-10T23:04:25;11.03;;;9.80;;
3004;SDS011;1512;51.486;6.610;2023-06-10T23:08:34;12.00;;;9.27;;
3004;SDS011;1512;51.486;6.610;2023-06-10T23:12:43;11.53;;;9.63;;
3004;SDS011;1512;51.486;6.610;2023-06-10T23:16:51;12.70;;;9.30;;
3004;SDS011;1512;51.486;6.610;2023-06-10T23:21:00;10.53;;;8.20;;
3004;SDS011;1512;51.486;6.610;2023-06-10T23:25:09;10.00;;;8.53;;
3004;SDS011;1512;51.486;6.610;2023-06-10T23:29:18;9.90;;;8.13;;
3004;SDS011;1512;51.486;6.610;2023-06-10T23:33:28;8.90;;;8.00;;
3004;SDS011;1512;51.486;6.610;2023-06-10T23:37:37;8.73;;;7.70;;
3004;SDS011;1512;51.486;6.610;2023-06-10T23:41:46;11.10;;;8.70;;
3004;SDS011;1512;51.486;6.610;2023-06-10T23:45:55;16.43;;;8.90;;
3004;SDS011;1512;51.486;6.610;2023-06-10T23:50:04;11.23;;;9.10;;
3004;SDS011;1512;51.486;6.610;2023-06-10T23:54:14;9.30;;;7.63;;
3004;SDS011;1512;51.486;6.610;2023-06-10T23:58:22;11.43;;;9.23;;
